Terminal Aerodrome Forecast
Issued by NWS

Home | Current Version | Previous Version | Text Only | Print | Product List | Glossary On
Versions: 1 2 3 4 5 6 7 8 9 10 11 12 13 14 15 16 17 18 19 20 21 22 23 24 25 26 27
000
FTUS43 KDVN 242300
TAFBRL
TAF
KBRL 242340Z 2500/2524 20004KT P6SM BKN120
     FM250500 15004KT P6SM -RA VCSH BKN060 OVC100
     FM250800 12004KT 5SM -RA BR BKN025 OVC040
     FM251300 06008KT 3SM -RASN BR OVC012
     FM251600 04011G19KT 1 1/2SM -SN BR OVC008
     FM251900 02013G21KT P6SM BKN015 OVC030=

USA.gov is the U.S. government's official web portal to all federal, state and local government web resources and services.